Time;durP1;ratioP1;P1;durP2;ratioP2;P2;SDS_P1;SDS_P2;PMS_P1;PMS_P2;Temp;Humidity;BMP_temperature;BMP_pressure;BME280_temperature;BME280_humidity;BME280_pressure;Samples;Min_cycle;Max_cycle;Signal;HPM_P1;HPM_P2
2022/10/11 00:00:48;;;;;;;4.53;2.38;;;8.10;99.90;;;;;;5052791;28;20045;-79
2022/10/11 00:03:14;;;;;;;7.95;2.78;;;8.00;99.90;;;;;;5052297;28;20048;-83
2022/10/11 00:05:42;;;;;;;5.35;2.17;;;8.00;99.90;;;;;;5053035;28;20098;-79
2022/10/11 00:08:09;;;;;;;5.78;2.08;;;8.00;99.90;;;;;;5052061;28;20049;-80
2022/10/11 00:10:34;;;;;;;6.45;2.92;;;8.00;99.90;;;;;;5053019;28;20049;-80
2022/10/11 00:13:00;;;;;;;4.63;2.40;;;7.90;99.90;;;;;;5052667;28;20052;-78
2022/10/11 00:15:26;;;;;;;10.63;3.47;;;7.90;99.90;;;;;;5052696;28;20080;-80
2022/10/11 00:17:52;;;;;;;4.03;2.15;;;7.90;99.90;;;;;;5053296;28;20087;-79
2022/10/11 00:20:18;;;;;;;9.45;2.83;;;7.90;99.90;;;;;;5052490;28;20657;-82
2022/10/11 00:22:44;;;;;;;8.15;2.65;;;7.80;99.90;;;;;;5052674;28;20098;-80
2022/10/11 00:25:11;;;;;;;5.45;2.60;;;7.80;99.90;;;;;;5052725;28;20060;-80
2022/10/11 00:27:37;;;;;;;11.38;3.47;;;7.80;99.90;;;;;;5053095;28;20421;-82
2022/10/11 00:30:07;;;;;;;11.05;3.92;;;7.80;99.90;;;;;;5053015;28;20132;-80
2022/10/11 00:32:34;;;;;;;14.38;3.47;;;7.80;99.90;;;;;;5052544;28;20056;-78
2022/10/11 00:35:05;;;;;;;7.97;2.28;;;7.80;99.90;;;;;;5052862;28;20053;-80
2022/10/11 00:37:35;;;;;;;7.53;2.80;;;7.80;99.90;;;;;;5052135;28;20041;-78
2022/10/11 00:40:02;;;;;;;7.25;2.75;;;7.80;99.90;;;;;;5052327;28;20048;-80
2022/10/11 00:42:28;;;;;;;12.25;3.00;;;7.80;99.90;;;;;;5051331;28;20102;-80
2022/10/11 00:45:25;;;;;;;5.60;2.85;;;7.80;99.90;;;;;;5052022;28;20041;-83
2022/10/11 00:47:53;;;;;;;9.00;2.78;;;7.80;99.90;;;;;;5052386;28;20040;-83
2022/10/11 00:50:21;;;;;;;8.13;3.63;;;7.80;99.90;;;;;;5052643;28;20226;-79
2022/10/11 00:52:54;;;;;;;8.90;3.08;;;7.80;99.90;;;;;;5052313;28;20502;-81
2022/10/11 00:55:22;;;;;;;9.00;2.35;;;7.80;99.90;;;;;;5052899;28;20053;-80
2022/10/11 00:57:51;;;;;;;4.22;2.65;;;7.80;99.90;;;;;;5051754;28;20435;-82
2022/10/11 01:00:17;;;;;;;4.00;2.10;;;7.80;99.90;;;;;;5052057;28;20448;-81
2022/10/11 01:02:43;;;;;;;6.72;2.55;;;7.70;99.90;;;;;;5052379;28;20060;-78
2022/10/11 01:05:12;;;;;;;5.32;2.03;;;7.80;99.90;;;;;;5052461;28;20095;-81
2022/10/11 01:07:39;;;;;;;8.65;2.60;;;7.70;99.90;;;;;;5051972;28;20494;-81
2022/10/11 01:10:05;;;;;;;8.07;3.42;;;7.60;99.90;;;;;;5054623;28;20487;-78
2022/10/11 01:12:31;;;;;;;8.00;2.42;;;7.60;99.90;;;;;;5056172;28;20045;-79
2022/10/11 01:15:09;;;;;;;10.40;2.85;;;7.60;99.90;;;;;;5056671;28;20114;-81
2022/10/11 01:17:49;;;;;;;12.43;2.85;;;7.60;99.90;;;;;;5056786;28;20115;-79
2022/10/11 01:20:38;;;;;;;7.68;2.38;;;7.60;99.90;;;;;;5056163;28;20045;-80
2022/10/11 01:23:26;;;;;;;6.25;3.30;;;7.60;99.90;;;;;;5056416;28;20064;-80
2022/10/11 01:26:22;;;;;;;7.10;1.92;;;7.60;99.90;;;;;;5055839;28;20044;-80
2022/10/11 01:29:05;;;;;;;5.90;2.35;;;7.60;99.90;;;;;;5088706;28;20049;-80
2022/10/11 01:31:57;;;;;;;6.32;2.17;;;7.50;99.90;;;;;;5055615;28;20044;-78
2022/10/11 01:34:34;;;;;;;9.18;3.65;;;7.50;99.90;;;;;;5056212;28;20041;-79
2022/10/11 01:37:11;;;;;;;6.57;2.78;;;7.50;99.90;;;;;;5088102;28;20052;-80
2022/10/11 01:39:50;;;;;;;3.58;2.30;;;7.80;99.90;;;;;;5055800;28;20489;-81
2022/10/11 01:42:17;;;;;;;9.15;2.90;;;7.40;99.90;;;;;;5055481;28;20048;-79
2022/10/11 01:44:47;;;;;;;6.00;2.75;;;7.50;99.90;;;;;;5055976;28;20072;-80
2022/10/11 01:47:13;;;;;;;5.45;2.55;;;7.50;99.90;;;;;;5055490;28;20045;-79
2022/10/11 01:49:39;;;;;;;12.32;2.38;;;7.50;99.90;;;;;;5054819;28;20067;-82
2022/10/11 01:52:06;;;;;;;8.52;2.80;;;7.50;99.90;;;;;;5054530;28;20452;-80
2022/10/11 01:55:01;;;;;;;10.65;3.25;;;7.50;99.90;;;;;;5055052;28;20060;-80
2022/10/11 01:58:05;;;;;;;3.17;2.63;;;7.50;99.90;;;;;;5055313;28;20124;-79
2022/10/11 02:00:46;;;;;;;10.45;3.60;;;7.50;99.90;;;;;;5054822;28;20084;-78
2022/10/11 02:03:38;;;;;;;5.53;2.47;;;7.50;99.90;;;;;;5055342;28;20045;-79
2022/10/11 02:06:12;;;;;;;5.63;1.95;;;7.40;99.90;;;;;;5054979;28;20052;-80
2022/10/11 02:08:59;;;;;;;6.85;3.10;;;7.40;99.90;;;;;;5055294;28;20052;-79
2022/10/11 02:11:31;;;;;;;6.00;2.25;;;7.40;99.90;;;;;;5055070;28;20054;-79
2022/10/11 02:14:20;;;;;;;6.47;2.47;;;7.40;99.90;;;;;;5053957;28;20421;-83
2022/10/11 02:16:55;;;;;;;5.22;2.08;;;7.40;99.90;;;;;;5055395;28;20099;-78
2022/10/11 02:19:26;;;;;;;4.70;2.28;;;7.30;99.90;;;;;;5054924;28;20044;-78
2022/10/11 02:21:55;;;;;;;8.43;3.78;;;7.30;99.90;;;;;;5054011;28;20092;-78
2022/10/11 02:24:26;;;;;;;6.25;2.40;;;7.30;99.90;;;;;;5054230;28;20052;-81
2022/10/11 02:26:54;;;;;;;11.05;3.03;;;7.30;99.90;;;;;;5054706;28;20104;-81
2022/10/11 02:29:23;;;;;;;6.10;2.20;;;7.30;99.90;;;;;;5054757;28;20052;-80
2022/10/11 02:31:49;;;;;;;6.72;2.20;;;7.20;99.90;;;;;;5054650;28;20085;-81
2022/10/11 02:34:25;;;;;;;8.15;2.25;;;7.20;99.90;;;;;;5054994;28;20041;-82
2022/10/11 02:36:54;;;;;;;5.82;2.42;;;7.20;99.90;;;;;;5055104;28;20049;-79
2022/10/11 02:39:27;;;;;;;8.65;2.20;;;7.30;99.90;;;;;;5054641;28;20057;-80
2022/10/11 02:41:56;;;;;;;7.40;2.75;;;7.20;99.90;;;;;;5054568;28;20044;-80
2022/10/11 02:44:31;;;;;;;3.72;2.70;;;7.20;99.90;;;;;;5054444;28;20041;-78
2022/10/11 02:46:59;;;;;;;3.70;2.00;;;7.20;99.90;;;;;;5054527;28;20084;-81
2022/10/11 02:49:27;;;;;;;7.18;2.47;;;7.10;99.90;;;;;;5054009;28;20044;-80
2022/10/11 02:51:57;;;;;;;6.28;2.20;;;7.20;99.90;;;;;;5054140;28;20057;-79
2022/10/11 02:54:26;;;;;;;5.18;2.50;;;7.20;99.90;;;;;;5054757;28;20063;-79
2022/10/11 02:56:52;;;;;;;8.68;3.30;;;7.20;99.90;;;;;;5053782;28;20044;-79
2022/10/11 02:59:18;;;;;;;4.38;2.60;;;7.20;99.90;;;;;;5054760;28;20048;-81
2022/10/11 03:01:43;;;;;;;5.20;2.38;;;7.20;99.90;;;;;;5054056;28;20506;-80
2022/10/11 03:04:09;;;;;;;9.10;2.92;;;7.10;99.90;;;;;;5054049;28;20047;-81
2022/10/11 03:06:35;;;;;;;4.18;2.40;;;7.10;99.90;;;;;;5085919;28;20426;-79
2022/10/11 03:09:00;;;;;;;3.75;2.17;;;7.10;99.90;;;;;;5054263;28;20041;-80
2022/10/11 03:11:26;;;;;;;5.97;2.70;;;7.10;99.90;;;;;;5053938;28;20115;-80
2022/10/11 03:13:52;;;;;;;11.80;2.53;;;7.00;99.90;;;;;;5053875;28;20487;-79
2022/10/11 03:16:18;;;;;;;7.32;2.40;;;7.00;99.90;;;;;;5054106;28;20065;-80
2022/10/11 03:18:43;;;;;;;3.65;2.03;;;7.00;99.90;;;;;;5053814;28;20041;-80
2022/10/11 03:21:09;;;;;;;5.00;2.20;;;7.00;99.90;;;;;;5053697;28;20197;-79
2022/10/11 03:23:35;;;;;;;8.88;2.30;;;7.00;99.90;;;;;;5053609;28;20617;-78
2022/10/11 03:26:00;;;;;;;5.72;2.22;;;7.00;99.90;;;;;;5054187;28;20051;-79
2022/10/11 03:28:26;;;;;;;8.93;2.80;;;7.00;99.90;;;;;;5054053;28;20056;-79
2022/10/11 03:30:52;;;;;;;7.10;2.45;;;7.00;99.90;;;;;;5053390;28;20102;-79
2022/10/11 03:33:18;;;;;;;5.72;2.03;;;7.00;99.90;;;;;;5053584;28;20513;-81
2022/10/11 03:35:45;;;;;;;5.25;2.35;;;6.90;99.90;;;;;;5053765;28;20045;-80
2022/10/11 03:38:13;;;;;;;7.78;2.15;;;6.90;99.90;;;;;;5053378;28;20052;-80
2022/10/11 03:40:40;;;;;;;11.23;2.90;;;6.90;99.90;;;;;;5053232;28;20091;-79
2022/10/11 03:43:06;;;;;;;5.95;2.63;;;6.90;99.90;;;;;;5052309;28;20373;-81
2022/10/11 03:45:31;;;;;;;5.85;2.35;;;6.80;99.90;;;;;;5053338;28;20049;-79
2022/10/11 03:47:57;;;;;;;5.93;2.05;;;6.90;99.90;;;;;;5053021;28;20045;-83
2022/10/11 03:50:23;;;;;;;6.60;2.65;;;6.90;99.90;;;;;;5053202;28;20049;-83
2022/10/11 03:52:49;;;;;;;8.05;3.13;;;6.80;99.90;;;;;;5051841;28;20479;-80
2022/10/11 03:55:15;;;;;;;5.65;2.15;;;6.90;99.90;;;;;;5053831;28;20107;-79
2022/10/11 03:57:41;;;;;;;6.57;2.70;;;6.80;99.90;;;;;;5053363;28;20041;-80
2022/10/11 04:00:07;;;;;;;3.67;2.67;;;6.70;99.90;;;;;;5053098;28;20080;-79
2022/10/11 04:02:33;;;;;;;3.95;1.52;;;6.80;99.90;;;;;;5085702;28;20055;-80
2022/10/11 04:05:00;;;;;;;5.20;2.03;;;6.70;99.90;;;;;;5053288;28;20431;-79
2022/10/11 04:07:26;;;;;;;5.80;2.10;;;6.70;99.90;;;;;;5053178;28;20045;-80
2022/10/11 04:09:51;;;;;;;8.20;2.10;;;6.70;99.90;;;;;;5053349;28;20041;-83
2022/10/11 04:12:17;;;;;;;4.05;2.67;;;6.70;99.90;;;;;;5053268;28;20049;-82
2022/10/11 04:14:43;;;;;;;4.90;2.28;;;6.70;99.90;;;;;;5052653;28;20045;-79
2022/10/11 04:17:08;;;;;;;6.43;2.00;;;6.70;99.90;;;;;;5053334;28;20123;-80
2022/10/11 04:19:37;;;;;;;6.57;2.67;;;6.70;99.90;;;;;;5053081;28;20045;-80
2022/10/11 04:22:03;;;;;;;6.35;2.03;;;6.70;99.90;;;;;;5052868;28;20067;-83
2022/10/11 04:24:29;;;;;;;7.78;1.98;;;5.80;99.90;;;;;;5052580;28;20102;-81
2022/10/11 04:26:55;;;;;;;4.38;2.10;;;6.70;99.90;;;;;;5052564;28;20045;-79
2022/10/11 04:29:21;;;;;;;5.40;2.83;;;6.90;99.90;;;;;;5052650;28;20071;-80
2022/10/11 04:31:46;;;;;;;7.00;2.70;;;6.70;99.90;;;;;;5052520;28;20044;-80
2022/10/11 04:34:12;;;;;;;6.03;2.35;;;6.80;99.90;;;;;;5052436;28;20081;-80
2022/10/11 04:36:38;;;;;;;5.80;2.03;;;6.60;99.90;;;;;;5052474;28;20044;-80
2022/10/11 04:39:05;;;;;;;9.30;2.33;;;6.70;99.90;;;;;;5052717;28;20045;-79
2022/10/11 04:41:31;;;;;;;4.90;2.20;;;6.60;99.90;;;;;;5052353;28;20401;-78
2022/10/11 04:43:56;;;;;;;6.05;2.53;;;6.60;99.90;;;;;;5051935;28;20101;-80
2022/10/11 04:46:22;;;;;;;5.35;1.75;;;6.60;99.90;;;;;;5052537;28;20041;-79
2022/10/11 04:48:48;;;;;;;5.43;2.05;;;6.60;99.90;;;;;;5051393;28;20437;-81
2022/10/11 04:51:14;;;;;;;5.82;2.35;;;6.90;99.90;;;;;;5052181;28;20045;-82
2022/10/11 04:53:39;;;;;;;7.97;2.58;;;6.60;99.90;;;;;;5052640;28;20056;-79
2022/10/11 04:56:10;;;;;;;7.78;2.20;;;6.60;99.90;;;;;;5052355;28;20430;-79
2022/10/11 04:58:37;;;;;;;9.13;2.58;;;6.50;99.90;;;;;;5053064;28;20074;-78
2022/10/11 05:01:03;;;;;;;5.75;2.35;;;6.50;99.90;;;;;;5052461;28;20045;-78
2022/10/11 05:03:29;;;;;;;9.13;2.92;;;6.80;99.90;;;;;;5052553;28;20500;-78
2022/10/11 05:05:54;;;;;;;4.00;2.08;;;6.60;99.90;;;;;;5052312;28;20087;-80
2022/10/11 05:08:24;;;;;;;7.75;2.95;;;6.50;99.90;;;;;;5051973;28;20045;-79
2022/10/11 05:11:01;;;;;;;10.05;2.50;;;6.50;99.90;;;;;;5052033;28;20516;-80
2022/10/11 05:13:28;;;;;;;8.68;1.95;;;6.60;99.90;;;;;;5052386;28;20080;-79
2022/10/11 05:15:55;;;;;;;5.10;2.40;;;6.50;99.90;;;;;;5052566;28;20060;-81
2022/10/11 05:18:21;;;;;;;6.47;2.90;;;6.60;99.90;;;;;;5051865;28;20049;-80
2022/10/11 05:20:47;;;;;;;6.88;3.15;;;6.50;99.90;;;;;;5052363;28;20049;-80
2022/10/11 05:23:13;;;;;;;5.95;2.97;;;6.50;99.90;;;;;;5051921;28;20377;-80
2022/10/11 05:25:39;;;;;;;4.35;1.90;;;6.50;99.90;;;;;;5051698;28;20041;-79
2022/10/11 05:28:04;;;;;;;8.18;2.33;;;6.50;99.90;;;;;;5052158;28;20047;-79
2022/10/11 05:30:30;;;;;;;6.75;1.95;;;6.50;99.90;;;;;;5052008;28;20045;-78
2022/10/11 05:32:56;;;;;;;7.28;2.25;;;6.50;99.90;;;;;;5051358;28;20084;-79
2022/10/11 05:35:21;;;;;;;5.72;2.33;;;6.50;99.90;;;;;;5050678;28;20048;-79
2022/10/11 05:37:47;;;;;;;5.88;2.05;;;6.50;99.90;;;;;;5051745;28;20041;-80
2022/10/11 05:40:13;;;;;;;5.07;2.55;;;6.60;99.90;;;;;;5051791;28;20087;-80
2022/10/11 05:42:39;;;;;;;5.55;1.90;;;6.50;99.90;;;;;;5052012;28;20052;-79
2022/10/11 05:45:05;;;;;;;5.75;2.30;;;6.60;99.90;;;;;;5051658;28;20106;-80
2022/10/11 05:47:32;;;;;;;8.07;2.50;;;6.60;99.90;;;;;;5084381;28;20106;-80
2022/10/11 05:49:58;;;;;;;4.97;2.88;;;6.60;99.90;;;;;;5051616;28;20483;-80
2022/10/11 05:52:23;;;;;;;10.90;2.47;;;6.60;99.90;;;;;;5051284;28;20142;-81
2022/10/11 05:54:49;;;;;;;6.15;2.35;;;6.60;99.90;;;;;;5051948;28;20056;-79
2022/10/11 05:57:15;;;;;;;7.57;2.97;;;6.60;99.90;;;;;;5054619;28;20120;-80
2022/10/11 05:59:41;;;;;;;4.60;1.65;;;6.60;99.90;;;;;;5055691;28;20452;-80
2022/10/11 06:02:12;;;;;;;6.13;2.75;;;6.60;99.90;;;;;;5087926;28;20459;-81
2022/10/11 06:04:38;;;;;;;10.23;2.33;;;6.60;99.90;;;;;;5055307;28;20041;-79
2022/10/11 06:07:05;;;;;;;4.22;2.20;;;6.80;99.90;;;;;;5055313;28;20147;-78
2022/10/11 06:09:33;;;;;;;4.90;2.30;;;6.60;99.90;;;;;;5055163;28;20114;-78
2022/10/11 06:11:59;;;;;;;3.45;1.70;;;6.70;99.90;;;;;;5053932;28;20049;-80
2022/10/11 06:14:25;;;;;;;9.43;2.20;;;6.70;99.90;;;;;;5054303;28;20494;-78
2022/10/11 06:16:51;;;;;;;4.43;2.33;;;6.70;99.90;;;;;;5054185;28;20037;-79
2022/10/11 06:19:17;;;;;;;6.07;3.40;;;6.70;99.90;;;;;;5054831;28;20094;-80
2022/10/11 06:21:44;;;;;;;5.30;2.15;;;6.80;99.90;;;;;;5053992;28;20131;-79
2022/10/11 06:24:11;;;;;;;9.02;2.05;;;6.80;99.90;;;;;;5071300;28;20053;-79
2022/10/11 06:26:37;;;;;;;4.80;2.10;;;6.80;99.90;;;;;;5055364;28;20075;-78
2022/10/11 06:29:03;;;;;;;4.97;2.10;;;6.80;99.90;;;;;;5055098;28;20040;-78
2022/10/11 06:31:28;;;;;;;2.75;2.22;;;7.00;99.90;;;;;;5054626;28;20490;-80
2022/10/11 06:33:54;;;;;;;5.82;2.58;;;6.80;99.90;;;;;;5053310;28;20053;-79
2022/10/11 06:36:20;;;;;;;9.27;2.10;;;6.90;99.90;;;;;;5054496;28;20127;-79
2022/10/11 06:38:46;;;;;;;5.07;1.90;;;6.90;99.90;;;;;;5054466;28;20045;-78
2022/10/11 06:41:23;;;;;;;4.55;2.58;;;7.00;99.90;;;;;;5054905;28;20379;-79
2022/10/11 06:43:49;;;;;;;5.95;2.30;;;7.00;99.90;;;;;;5054518;28;20060;-80
2022/10/11 06:46:16;;;;;;;6.82;2.72;;;7.00;99.90;;;;;;5053441;28;20071;-79
2022/10/11 06:48:44;;;;;;;4.47;2.28;;;7.10;99.90;;;;;;5053893;28;20526;-79
2022/10/11 06:51:14;;;;;;;6.53;2.20;;;7.10;99.90;;;;;;5054214;28;20098;-78
2022/10/11 06:53:40;;;;;;;5.25;2.70;;;7.20;99.90;;;;;;5053907;28;20057;-78
2022/10/11 06:56:08;;;;;;;6.60;2.25;;;7.30;99.90;;;;;;5054118;28;20045;-82
2022/10/11 06:58:34;;;;;;;6.65;2.47;;;7.40;99.90;;;;;;5054060;28;20051;-79
2022/10/11 07:01:02;;;;;;;3.25;2.13;;;7.40;99.90;;;;;;5053895;28;20041;-80
2022/10/11 07:03:28;;;;;;;5.25;1.67;;;7.40;99.90;;;;;;5054052;28;20103;-79
2022/10/11 07:06:06;;;;;;;11.27;2.47;;;7.50;99.90;;;;;;5054357;28;20051;-78
2022/10/11 07:08:32;;;;;;;6.63;2.72;;;7.60;99.90;;;;;;5053697;28;20080;-77
2022/10/11 07:11:13;;;;;;;5.60;2.65;;;7.60;99.90;;;;;;5086350;28;20056;-80
2022/10/11 07:13:39;;;;;;;6.68;2.28;;;7.70;99.90;;;;;;5086271;28;20045;-81
2022/10/11 07:16:08;;;;;;;3.97;2.30;;;7.80;99.90;;;;;;5053771;28;20049;-78
2022/10/11 07:18:34;;;;;;;7.38;2.60;;;7.80;99.90;;;;;;5053700;28;20517;-80
2022/10/11 07:21:08;;;;;;;7.95;2.28;;;7.90;99.90;;;;;;5053017;28;20049;-80
2022/10/11 07:23:34;;;;;;;5.47;3.28;;;8.00;99.90;;;;;;5054110;28;20037;-80
2022/10/11 07:26:00;;;;;;;7.18;2.42;;;8.10;99.90;;;;;;5053589;28;20215;-80
2022/10/11 07:28:27;;;;;;;4.07;2.10;;;8.10;99.90;;;;;;5053513;28;20088;-79
2022/10/11 07:30:53;;;;;;;13.73;4.10;;;8.20;99.90;;;;;;5053447;28;20044;-81
2022/10/11 07:33:19;;;;;;;8.85;2.50;;;8.30;99.90;;;;;;5053590;28;20478;-79
2022/10/11 07:35:44;;;;;;;4.97;2.53;;;8.40;99.90;;;;;;5053643;28;20056;-79
2022/10/11 07:38:11;;;;;;;4.97;2.20;;;8.50;99.90;;;;;;5053732;28;20543;-79
2022/10/11 07:40:42;;;;;;;5.03;2.05;;;8.60;99.90;;;;;;5052261;28;20166;-79
2022/10/11 07:43:09;;;;;;;6.97;3.65;;;8.60;99.90;;;;;;5053431;28;20122;-79
2022/10/11 07:45:44;;;;;;;9.25;3.13;;;8.80;99.90;;;;;;5053173;28;20124;-79
2022/10/11 07:48:10;;;;;;;5.05;2.10;;;8.90;99.90;;;;;;5052417;28;20049;-82
2022/10/11 07:50:35;;;;;;;4.15;2.20;;;9.00;99.90;;;;;;5053199;28;20049;-79
2022/10/11 07:53:02;;;;;;;5.00;2.38;;;9.10;99.90;;;;;;5052322;28;20061;-73
2022/10/11 07:55:29;;;;;;;6.68;2.08;;;9.20;99.90;;;;;;5053579;28;20053;-80
2022/10/11 07:57:56;;;;;;;6.40;2.40;;;9.30;99.90;;;;;;5053160;28;20045;-80
2022/10/11 08:00:22;;;;;;;8.32;2.53;;;9.40;99.90;;;;;;5053131;28;20053;-79
2022/10/11 08:02:48;;;;;;;7.28;2.75;;;9.40;99.90;;;;;;5053721;28;20041;-80
2022/10/11 08:05:14;;;;;;;4.80;2.58;;;9.50;99.90;;;;;;5053828;28;20048;-73
2022/10/11 08:07:40;;;;;;;8.15;4.22;;;9.60;99.90;;;;;;5053365;28;20041;-71
2022/10/11 08:10:06;;;;;;;5.18;2.58;;;9.70;99.90;;;;;;5086208;28;20060;-72
2022/10/11 08:12:32;;;;;;;5.43;2.22;;;9.80;99.90;;;;;;5053325;28;20120;-80
2022/10/11 08:14:58;;;;;;;7.13;2.60;;;10.00;99.90;;;;;;5053116;28;20080;-77
2022/10/11 08:17:25;;;;;;;5.00;2.33;;;10.10;99.90;;;;;;5051473;28;20041;-79
2022/10/11 08:19:51;;;;;;;5.55;3.25;;;10.20;99.90;;;;;;5052891;28;20129;-77
2022/10/11 08:22:17;;;;;;;5.80;2.17;;;10.30;99.90;;;;;;5053126;28;20076;-78
2022/10/11 08:24:42;;;;;;;9.30;2.30;;;10.50;99.90;;;;;;5052143;28;20056;-80
2022/10/11 08:27:08;;;;;;;6.75;2.30;;;10.60;99.90;;;;;;5052933;28;20083;-79
2022/10/11 08:29:34;;;;;;;9.07;2.55;;;10.80;99.90;;;;;;5052686;28;20485;-79
2022/10/11 08:32:00;;;;;;;6.88;2.42;;;10.90;99.90;;;;;;5051462;28;20356;-77
2022/10/11 08:34:25;;;;;;;3.95;2.58;;;11.10;99.90;;;;;;5051958;28;20045;-77
2022/10/11 08:36:51;;;;;;;7.75;2.90;;;11.20;99.90;;;;;;5052126;28;20037;-78
2022/10/11 08:39:17;;;;;;;7.90;2.53;;;11.40;99.90;;;;;;5052675;28;20045;-78
2022/10/11 08:42:01;;;;;;;6.20;2.13;;;11.50;99.90;;;;;;5052129;28;20048;-79
2022/10/11 08:44:42;;;;;;;5.05;1.95;;;11.70;99.90;;;;;;5068314;28;20052;-81
2022/10/11 08:47:22;;;;;;;8.57;2.17;;;11.90;99.90;;;;;;5052579;28;20375;-78
2022/10/11 08:49:49;;;;;;;6.05;2.15;;;12.00;99.90;;;;;;5052269;28;20048;-81
2022/10/11 08:52:26;;;;;;;6.28;1.98;;;12.20;99.90;;;;;;5052125;28;20061;-79
2022/10/11 08:55:03;;;;;;;3.92;2.25;;;12.30;99.90;;;;;;5052226;28;20060;-79
2022/10/11 08:57:34;;;;;;;4.15;1.98;;;12.50;99.90;;;;;;5052343;28;20056;-79
2022/10/11 09:00:13;;;;;;;6.03;1.80;;;12.60;99.90;;;;;;5052036;28;20048;-79
2022/10/11 09:03:20;;;;;;;7.80;2.38;;;12.80;99.90;;;;;;5052601;28;20060;-80
2022/10/11 09:06:03;;;;;;;6.72;2.15;;;12.90;99.90;;;;;;5030980;28;20053;-80
2022/10/11 09:08:50;;;;;;;6.47;3.10;;;13.20;99.90;;;;;;5051951;28;20490;-79
2022/10/11 09:11:21;;;;;;;5.30;2.38;;;13.40;99.90;;;;;;5084531;28;20041;-79
2022/10/11 09:13:55;;;;;;;5.53;1.77;;;13.50;99.90;;;;;;5051924;28;20045;-79
2022/10/11 09:16:20;;;;;;;7.30;2.45;;;13.70;99.90;;;;;;5052035;28;20048;-79
2022/10/11 09:19:01;;;;;;;9.30;2.17;;;14.10;99.90;;;;;;5084876;28;20178;-79
2022/10/11 09:21:49;;;;;;;7.10;2.03;;;14.50;99.90;;;;;;5052034;28;20108;-81
2022/10/11 09:24:28;;;;;;;9.30;2.55;;;15.20;99.90;;;;;;5051871;28;20482;-79
2022/10/11 09:27:02;;;;;;;4.25;2.30;;;16.40;99.90;;;;;;5085528;28;20041;-80
2022/10/11 09:29:42;;;;;;;3.72;2.45;;;17.60;99.90;;;;;;5053420;28;20124;-79
2022/10/11 09:32:14;;;;;;;5.18;2.00;;;18.50;99.90;;;;;;5056397;28;20099;-80
2022/10/11 09:34:40;;;;;;;7.00;2.20;;;19.20;99.90;;;;;;5055858;28;20072;-78
2022/10/11 09:37:21;;;;;;;7.40;2.05;;;19.80;99.90;;;;;;5055447;28;20503;-79
2022/10/11 09:39:55;;;;;;;7.85;1.90;;;19.80;99.90;;;;;;5055994;28;20061;-79
2022/10/11 09:42:21;;;;;;;10.30;2.45;;;20.80;99.90;;;;;;5055938;28;20131;-79
2022/10/11 09:44:50;;;;;;;7.40;3.35;;;21.50;99.90;;;;;;5055527;28;20076;-80
2022/10/11 09:47:27;;;;;;;9.07;1.92;;;21.70;99.90;;;;;;5055422;28;20041;-79
2022/10/11 09:49:57;;;;;;;7.13;2.15;;;22.00;99.90;;;;;;5055326;28;20059;-80
2022/10/11 09:52:24;;;;;;;3.97;2.03;;;22.10;99.90;;;;;;5055387;28;20137;-79
2022/10/11 09:54:56;;;;;;;6.97;2.53;;;21.50;99.90;;;;;;5055698;28;20045;-78
2022/10/11 09:57:36;;;;;;;7.53;2.53;;;21.00;99.90;;;;;;5055629;28;20052;-80
2022/10/11 10:00:10;;;;;;;6.78;2.25;;;21.80;99.90;;;;;;5070977;28;20040;-80
2022/10/11 10:02:43;;;;;;;6.32;2.53;;;22.40;99.90;;;;;;5055375;28;20052;-80
2022/10/11 10:05:09;;;;;;;4.97;1.98;;;21.80;99.90;;;;;;5055017;28;20047;-81
2022/10/11 10:07:37;;;;;;;8.30;2.38;;;21.00;99.90;;;;;;5055499;28;20128;-80
2022/10/11 10:10:30;;;;;;;7.40;2.00;;;20.00;99.90;;;;;;5087422;28;20041;-80
2022/10/11 10:12:58;;;;;;;6.55;2.17;;;20.10;94.50;;;;;;5054631;28;20519;-79
2022/10/11 10:15:32;;;;;;;5.28;2.47;;;21.40;96.90;;;;;;5054931;28;20045;-81
2022/10/11 10:17:58;;;;;;;9.00;2.97;;;22.40;95.50;;;;;;5054922;28;20092;-80
2022/10/11 10:20:32;;;;;;;13.60;2.67;;;22.90;95.10;;;;;;5054707;28;20103;-81
2022/10/11 10:23:17;;;;;;;7.53;2.10;;;23.00;90.30;;;;;;5055070;28;20044;-79
2022/10/11 10:25:49;;;;;;;4.80;1.75;;;23.10;90.40;;;;;;5054824;28;20407;-77
2022/10/11 10:28:22;;;;;;;8.18;2.15;;;23.00;93.00;;;;;;5055106;28;20049;-78
2022/10/11 10:30:56;;;;;;;6.85;2.35;;;22.40;91.20;;;;;;5054979;28;20116;-80
2022/10/11 10:33:31;;;;;;;6.70;2.25;;;20.80;91.50;;;;;;5054633;28;20083;-78
2022/10/11 10:35:59;;;;;;;8.73;2.53;;;19.70;95.10;;;;;;5054596;28;20076;-81
2022/10/11 10:38:41;;;;;;;6.28;2.20;;;18.90;97.90;;;;;;5054432;28;20085;-79
2022/10/11 10:41:13;;;;;;;4.55;1.92;;;18.20;96.30;;;;;;5054123;28;20114;-79
2022/10/11 10:43:44;;;;;;;6.28;2.08;;;17.60;99.80;;;;;;5052640;28;20379;-80
2022/10/11 10:46:25;;;;;;;6.97;2.25;;;17.30;99.90;;;;;;5054265;28;20036;-79
2022/10/11 10:49:01;;;;;;;9.27;2.78;;;16.90;98.50;;;;;;5054217;28;20079;-79
2022/10/11 10:51:53;;;;;;;9.30;2.72;;;16.70;99.90;;;;;;5054086;28;20049;-79
2022/10/11 10:54:54;;;;;;;5.18;2.13;;;16.80;99.90;;;;;;5054556;28;20048;-81
2022/10/11 10:57:58;;;;;;;10.10;2.40;;;16.70;99.90;;;;;;5069712;28;20068;-79
2022/10/11 11:00:27;;;;;;;4.70;2.10;;;16.70;99.90;;;;;;5054297;28;20044;-79
2022/10/11 11:02:56;;;;;;;4.88;2.50;;;16.60;99.90;;;;;;5054065;28;20194;-80
2022/10/11 11:05:50;;;;;;;11.35;2.95;;;16.70;99.90;;;;;;5053963;28;20124;-77
2022/10/11 11:08:40;;;;;;;7.75;2.40;;;16.70;99.90;;;;;;5054417;28;20053;-78
2022/10/11 11:11:37;;;;;;;7.45;2.28;;;16.60;99.50;;;;;;5054737;28;20060;-78
2022/10/11 11:14:19;;;;;;;5.10;1.83;;;16.70;99.90;;;;;;5053934;28;20049;-78
2022/10/11 11:17:11;;;;;;;5.07;2.33;;;16.90;99.90;;;;;;5053968;28;20048;-78
2022/10/11 11:20:15;;;;;;;4.82;2.20;;;17.00;99.90;;;;;;5053772;28;20045;-78
2022/10/11 11:22:49;;;;;;;;;;;17.00;99.90;;;;;;4999965;28;20062;-78
2022/10/11 11:25:47;;;;;;;3.20;1.90;;;17.00;99.10;;;;;;5053298;28;19921;-78
2022/10/11 11:28:32;;;;;;;8.63;2.70;;;17.00;98.80;;;;;;5054144;28;20075;-78
2022/10/11 11:31:15;;;;;;;5.03;2.67;;;17.00;99.90;;;;;;5053566;28;20462;-78
2022/10/11 11:33:46;;;;;;;5.72;2.17;;;17.10;99.50;;;;;;5053733;28;20049;-80
2022/10/11 11:36:30;;;;;;;8.68;2.28;;;17.00;99.80;;;;;;5053396;28;20359;-77
2022/10/11 11:39:00;;;;;;;4.93;1.92;;;17.00;99.00;;;;;;5054013;28;20179;-79
2022/10/11 11:41:34;;;;;;;6.10;2.60;;;16.90;99.10;;;;;;5053401;28;20484;-79
2022/10/11 11:44:38;;;;;;;8.95;2.67;;;16.80;99.50;;;;;;5053260;28;20053;-78
2022/10/11 11:47:19;;;;;;;7.25;2.47;;;16.80;99.90;;;;;;5053455;28;20076;-78
2022/10/11 11:50:04;;;;;;;7.78;2.50;;;16.80;99.90;;;;;;5053249;28;20481;-78
2022/10/11 11:52:39;;;;;;;6.78;2.00;;;16.80;99.90;;;;;;5052755;28;20471;-80
2022/10/11 11:55:33;;;;;;;4.80;2.00;;;16.80;99.90;;;;;;5052248;28;20053;-79
2022/10/11 11:58:28;;;;;;;6.43;2.13;;;16.90;97.70;;;;;;5026746;28;20053;-79
2022/10/11 12:01:00;;;;;;;5.70;2.13;;;17.00;98.50;;;;;;5053412;28;20187;-80
2022/10/11 12:03:51;;;;;;;4.93;1.83;;;17.00;98.20;;;;;;5052865;28;20041;-82
2022/10/11 12:06:23;;;;;;;3.83;1.58;;;17.20;99.40;;;;;;5053121;28;20041;-77
2022/10/11 12:09:02;;;;;;;7.55;2.15;;;17.10;95.90;;;;;;5051466;28;20128;-78
2022/10/11 12:11:36;;;;;;;5.78;2.30;;;17.20;96.80;;;;;;5052857;28;20145;-78
2022/10/11 12:14:32;;;;;;;6.18;2.15;;;17.40;98.60;;;;;;5053083;28;20098;-76
2022/10/11 12:17:16;;;;;;;7.10;2.28;;;17.40;97.60;;;;;;5052835;28;20124;-78
2022/10/11 12:20:02;;;;;;;6.47;2.47;;;17.30;97.20;;;;;;5084932;28;20048;-78
2022/10/11 12:22:28;;;;;;;7.13;2.38;;;17.20;98.10;;;;;;5051391;28;20059;-78
2022/10/11 12:24:59;;;;;;;5.53;1.83;;;17.10;98.60;;;;;;5052825;28;20053;-77
2022/10/11 12:27:39;;;;;;;7.53;1.90;;;17.00;99.00;;;;;;5052303;28;20049;-78
2022/10/11 12:30:42;;;;;;;9.60;2.67;;;17.00;98.90;;;;;;5053348;28;20044;-79
2022/10/11 12:33:35;;;;;;;8.27;1.65;;;17.10;98.50;;;;;;5053482;28;20053;-78
2022/10/11 12:36:02;;;;;;;2.47;1.80;;;17.20;96.10;;;;;;5029592;28;20049;-74
2022/10/11 12:38:33;;;;;;;4.93;1.88;;;17.40;98.10;;;;;;5068420;28;20052;-77
2022/10/11 12:41:07;;;;;;;3.75;2.00;;;17.40;98.30;;;;;;5052271;28;20055;-78
2022/10/11 12:43:55;;;;;;;6.22;2.47;;;17.30;97.50;;;;;;5052355;28;20080;-79
2022/10/11 12:46:29;;;;;;;5.88;1.90;;;17.20;97.80;;;;;;5041512;28;20053;-78
2022/10/11 12:49:14;;;;;;;4.50;1.60;;;17.30;96.70;;;;;;5052245;28;20051;-78
2022/10/11 12:51:59;;;;;;;4.70;2.00;;;17.40;97.40;;;;;;5052113;28;20085;-78
2022/10/11 12:54:44;;;;;;;6.07;2.00;;;17.50;97.80;;;;;;5052325;28;20053;-77
2022/10/11 12:57:54;;;;;;;6.10;2.22;;;17.60;97.50;;;;;;5054292;28;20052;-79
2022/10/11 13:00:28;;;;;;;2.95;1.85;;;17.60;96.90;;;;;;4993530;28;20382;-76
2022/10/11 13:03:00;;;;;;;7.60;1.70;;;17.60;97.90;;;;;;5047033;28;20061;-79
2022/10/11 13:05:42;;;;;;;13.38;2.30;;;17.60;98.20;;;;;;5053537;28;20044;-79
2022/10/11 13:08:14;;;;;;;3.95;2.00;;;17.60;97.10;;;;;;5055913;28;20524;-81
2022/10/11 13:10:44;;;;;;;6.68;2.28;;;17.60;98.20;;;;;;5056505;28;20087;-79
2022/10/11 13:13:21;;;;;;;6.93;2.38;;;17.60;96.80;;;;;;5088433;28;20059;-78
2022/10/11 13:15:47;;;;;;;5.40;2.00;;;17.60;97.10;;;;;;5056665;28;20122;-81
2022/10/11 13:18:16;;;;;;;2.83;1.63;;;17.50;97.40;;;;;;5056156;28;20084;-79